sensor_id;sensor_type;location;lat;lon;timestamp;P1;durP1;ratioP1;P2;durP2;ratioP2
21152;SDS011;10734;44.792;20.482;2024-03-29T00:01:25;7.43;;;1.73;;
21152;SDS011;10734;44.792;20.482;2024-03-29T00:03:51;5.75;;;1.45;;
21152;SDS011;10734;44.792;20.482;2024-03-29T00:06:18;10.13;;;1.83;;
21152;SDS011;10734;44.792;20.482;2024-03-29T00:08:44;11.40;;;2.03;;
21152;SDS011;10734;44.792;20.482;2024-03-29T00:11:10;4.85;;;1.60;;
21152;SDS011;10734;44.792;20.482;2024-03-29T00:13:37;10.05;;;1.50;;
21152;SDS011;10734;44.792;20.482;2024-03-29T00:16:03;7.13;;;1.48;;
21152;SDS011;10734;44.792;20.482;2024-03-29T00:18:30;4.35;;;1.38;;
21152;SDS011;10734;44.792;20.482;2024-03-29T00:20:56;3.70;;;0.90;;
21152;SDS011;10734;44.792;20.482;2024-03-29T00:23:22;4.68;;;1.52;;
21152;SDS011;10734;44.792;20.482;2024-03-29T00:25:49;4.75;;;1.77;;
21152;SDS011;10734;44.792;20.482;2024-03-29T00:28:15;8.30;;;1.73;;
21152;SDS011;10734;44.792;20.482;2024-03-29T00:30:41;7.93;;;1.65;;
21152;SDS011;10734;44.792;20.482;2024-03-29T00:33:07;8.65;;;1.73;;
21152;SDS011;10734;44.792;20.482;2024-03-29T00:35:34;5.93;;;1.55;;
21152;SDS011;10734;44.792;20.482;2024-03-29T00:38:00;7.53;;;1.35;;
21152;SDS011;10734;44.792;20.482;2024-03-29T00:40:26;9.57;;;1.80;;
21152;SDS011;10734;44.792;20.482;2024-03-29T00:42:52;5.50;;;1.38;;
21152;SDS011;10734;44.792;20.482;2024-03-29T00:45:19;5.68;;;1.58;;
21152;SDS011;10734;44.792;20.482;2024-03-29T00:47:45;4.85;;;1.58;;
21152;SDS011;10734;44.792;20.482;2024-03-29T00:50:11;7.75;;;1.75;;
21152;SDS011;10734;44.792;20.482;2024-03-29T00:52:38;5.10;;;1.95;;
21152;SDS011;10734;44.792;20.482;2024-03-29T00:55:04;8.50;;;1.48;;
21152;SDS011;10734;44.792;20.482;2024-03-29T00:57:31;5.25;;;1.55;;
21152;SDS011;10734;44.792;20.482;2024-03-29T00:59:57;9.02;;;1.55;;
21152;SDS011;10734;44.792;20.482;2024-03-29T01:02:23;4.40;;;1.65;;
21152;SDS011;10734;44.792;20.482;2024-03-29T01:04:50;6.45;;;1.67;;
21152;SDS011;10734;44.792;20.482;2024-03-29T01:07:17;3.03;;;1.20;;
21152;SDS011;10734;44.792;20.482;2024-03-29T01:09:43;4.43;;;1.30;;
21152;SDS011;10734;44.792;20.482;2024-03-29T01:12:10;4.93;;;1.63;;
21152;SDS011;10734;44.792;20.482;2024-03-29T01:14:37;8.45;;;1.58;;
21152;SDS011;10734;44.792;20.482;2024-03-29T01:17:03;4.47;;;1.88;;
21152;SDS011;10734;44.792;20.482;2024-03-29T01:19:29;3.83;;;1.17;;
21152;SDS011;10734;44.792;20.482;2024-03-29T01:21:56;9.20;;;1.88;;
21152;SDS011;10734;44.792;20.482;2024-03-29T01:24:22;6.13;;;1.45;;
21152;SDS011;10734;44.792;20.482;2024-03-29T01:26:48;6.53;;;1.55;;
21152;SDS011;10734;44.792;20.482;2024-03-29T01:29:15;6.28;;;1.50;;
21152;SDS011;10734;44.792;20.482;2024-03-29T01:31:42;6.85;;;1.83;;
21152;SDS011;10734;44.792;20.482;2024-03-29T01:34:10;6.82;;;1.48;;
21152;SDS011;10734;44.792;20.482;2024-03-29T01:36:37;5.82;;;1.80;;
21152;SDS011;10734;44.792;20.482;2024-03-29T01:39:03;6.60;;;1.45;;
21152;SDS011;10734;44.792;20.482;2024-03-29T01:41:32;5.93;;;1.83;;
21152;SDS011;10734;44.792;20.482;2024-03-29T01:43:58;8.20;;;1.90;;
21152;SDS011;10734;44.792;20.482;2024-03-29T01:46:26;5.18;;;1.45;;
21152;SDS011;10734;44.792;20.482;2024-03-29T01:48:53;9.30;;;1.90;;
21152;SDS011;10734;44.792;20.482;2024-03-29T01:51:22;4.43;;;1.58;;
21152;SDS011;10734;44.792;20.482;2024-03-29T01:53:52;10.13;;;1.70;;
21152;SDS011;10734;44.792;20.482;2024-03-29T01:56:21;9.40;;;1.77;;
21152;SDS011;10734;44.792;20.482;2024-03-29T01:58:49;6.35;;;1.35;;
21152;SDS011;10734;44.792;20.482;2024-03-29T02:01:19;7.80;;;1.52;;
21152;SDS011;10734;44.792;20.482;2024-03-29T02:03:47;6.35;;;1.75;;
21152;SDS011;10734;44.792;20.482;2024-03-29T02:06:19;7.65;;;1.58;;
21152;SDS011;10734;44.792;20.482;2024-03-29T02:08:49;5.57;;;1.98;;
21152;SDS011;10734;44.792;20.482;2024-03-29T02:11:18;8.13;;;2.92;;
21152;SDS011;10734;44.792;20.482;2024-03-29T02:13:46;10.80;;;2.20;;
21152;SDS011;10734;44.792;20.482;2024-03-29T02:16:15;8.65;;;1.65;;
21152;SDS011;10734;44.792;20.482;2024-03-29T02:18:42;6.88;;;1.60;;
21152;SDS011;10734;44.792;20.482;2024-03-29T02:21:10;3.95;;;1.90;;
21152;SDS011;10734;44.792;20.482;2024-03-29T02:23:40;6.22;;;1.55;;
21152;SDS011;10734;44.792;20.482;2024-03-29T02:26:11;6.35;;;1.75;;
21152;SDS011;10734;44.792;20.482;2024-03-29T02:28:39;6.75;;;1.60;;
21152;SDS011;10734;44.792;20.482;2024-03-29T02:31:07;8.25;;;1.65;;
21152;SDS011;10734;44.792;20.482;2024-03-29T02:33:35;6.28;;;1.35;;
21152;SDS011;10734;44.792;20.482;2024-03-29T02:36:05;5.28;;;1.50;;
21152;SDS011;10734;44.792;20.482;2024-03-29T02:38:36;9.75;;;1.70;;
21152;SDS011;10734;44.792;20.482;2024-03-29T02:41:04;5.75;;;1.35;;
21152;SDS011;10734;44.792;20.482;2024-03-29T02:43:32;8.55;;;1.52;;
21152;SDS011;10734;44.792;20.482;2024-03-29T02:46:00;12.07;;;1.83;;
21152;SDS011;10734;44.792;20.482;2024-03-29T02:48:28;7.10;;;1.42;;
21152;SDS011;10734;44.792;20.482;2024-03-29T02:50:55;5.60;;;1.52;;
21152;SDS011;10734;44.792;20.482;2024-03-29T02:53:22;8.05;;;1.38;;
21152;SDS011;10734;44.792;20.482;2024-03-29T02:55:48;3.70;;;1.17;;
21152;SDS011;10734;44.792;20.482;2024-03-29T02:58:16;4.57;;;1.10;;
21152;SDS011;10734;44.792;20.482;2024-03-29T03:00:42;9.90;;;1.70;;
21152;SDS011;10734;44.792;20.482;2024-03-29T03:03:10;9.68;;;1.95;;
21152;SDS011;10734;44.792;20.482;2024-03-29T03:05:37;5.32;;;1.10;;
21152;SDS011;10734;44.792;20.482;2024-03-29T03:08:05;10.68;;;1.83;;
21152;SDS011;10734;44.792;20.482;2024-03-29T03:10:50;6.25;;;1.15;;
21152;SDS011;10734;44.792;20.482;2024-03-29T03:13:28;5.68;;;1.00;;
21152;SDS011;10734;44.792;20.482;2024-03-29T03:15:55;5.73;;;1.37;;
21152;SDS011;10734;44.792;20.482;2024-03-29T03:18:23;1.80;;;0.55;;
21152;SDS011;10734;44.792;20.482;2024-03-29T03:20:53;4.10;;;0.65;;
21152;SDS011;10734;44.792;20.482;2024-03-29T03:25:55;1.48;;;0.38;;
21152;SDS011;10734;44.792;20.482;2024-03-29T03:28:21;2.10;;;0.40;;
21152;SDS011;10734;44.792;20.482;2024-03-29T03:30:49;1.27;;;0.45;;
21152;SDS011;10734;44.792;20.482;2024-03-29T03:33:16;1.77;;;0.35;;
21152;SDS011;10734;44.792;20.482;2024-03-29T03:35:43;5.55;;;0.40;;
21152;SDS011;10734;44.792;20.482;2024-03-29T03:38:10;1.88;;;0.60;;
21152;SDS011;10734;44.792;20.482;2024-03-29T03:40:38;4.35;;;0.60;;
21152;SDS011;10734;44.792;20.482;2024-03-29T03:43:05;3.78;;;0.30;;
21152;SDS011;10734;44.792;20.482;2024-03-29T03:45:34;5.05;;;0.20;;
21152;SDS011;10734;44.792;20.482;2024-03-29T03:48:05;5.07;;;0.43;;
21152;SDS011;10734;44.792;20.482;2024-03-29T03:50:34;2.38;;;0.40;;
21152;SDS011;10734;44.792;20.482;2024-03-29T03:53:00;1.65;;;0.28;;
21152;SDS011;10734;44.792;20.482;2024-03-29T03:55:27;1.80;;;0.20;;
21152;SDS011;10734;44.792;20.482;2024-03-29T03:57:54;1.55;;;0.60;;
21152;SDS011;10734;44.792;20.482;2024-03-29T04:00:22;1.05;;;0.40;;
21152;SDS011;10734;44.792;20.482;2024-03-29T04:02:52;1.33;;;0.30;;
21152;SDS011;10734;44.792;20.482;2024-03-29T04:05:20;2.60;;;0.50;;
21152;SDS011;10734;44.792;20.482;2024-03-29T04:07:47;0.80;;;0.40;;
21152;SDS011;10734;44.792;20.482;2024-03-29T04:10:15;1.63;;;0.38;;
21152;SDS011;10734;44.792;20.482;2024-03-29T04:12:41;0.50;;;0.20;;
21152;SDS011;10734;44.792;20.482;2024-03-29T04:15:09;2.63;;;0.50;;
21152;SDS011;10734;44.792;20.482;2024-03-29T04:17:36;1.25;;;0.30;;
21152;SDS011;10734;44.792;20.482;2024-03-29T04:20:03;0.47;;;0.20;;
21152;SDS011;10734;44.792;20.482;2024-03-29T04:22:31;0.65;;;0.30;;
21152;SDS011;10734;44.792;20.482;2024-03-29T04:24:59;1.80;;;0.35;;
21152;SDS011;10734;44.792;20.482;2024-03-29T04:27:26;3.55;;;0.40;;
21152;SDS011;10734;44.792;20.482;2024-03-29T04:29:54;0.88;;;0.30;;
21152;SDS011;10734;44.792;20.482;2024-03-29T04:32:21;2.42;;;0.35;;
21152;SDS011;10734;44.792;20.482;2024-03-29T04:34:49;1.15;;;0.15;;
21152;SDS011;10734;44.792;20.482;2024-03-29T04:37:16;1.50;;;0.30;;
21152;SDS011;10734;44.792;20.482;2024-03-29T04:39:46;1.88;;;0.25;;
21152;SDS011;10734;44.792;20.482;2024-03-29T04:42:14;0.43;;;0.30;;
21152;SDS011;10734;44.792;20.482;2024-03-29T04:44:41;2.05;;;0.40;;
21152;SDS011;10734;44.792;20.482;2024-03-29T04:47:09;1.25;;;0.40;;
21152;SDS011;10734;44.792;20.482;2024-03-29T04:49:39;0.45;;;0.30;;
21152;SDS011;10734;44.792;20.482;2024-03-29T04:52:06;2.35;;;0.52;;
21152;SDS011;10734;44.792;20.482;2024-03-29T04:54:35;0.40;;;0.28;;
21152;SDS011;10734;44.792;20.482;2024-03-29T04:57:02;2.97;;;0.60;;
21152;SDS011;10734;44.792;20.482;2024-03-29T04:59:32;5.10;;;0.47;;
21152;SDS011;10734;44.792;20.482;2024-03-29T05:02:00;1.13;;;0.52;;
21152;SDS011;10734;44.792;20.482;2024-03-29T05:04:28;2.42;;;0.70;;
21152;SDS011;10734;44.792;20.482;2024-03-29T05:06:56;1.17;;;0.40;;
21152;SDS011;10734;44.792;20.482;2024-03-29T05:09:24;3.92;;;0.65;;
21152;SDS011;10734;44.792;20.482;2024-03-29T05:11:52;1.35;;;0.52;;
21152;SDS011;10734;44.792;20.482;2024-03-29T05:14:20;2.67;;;1.27;;
21152;SDS011;10734;44.792;20.482;2024-03-29T05:16:51;5.03;;;1.20;;
21152;SDS011;10734;44.792;20.482;2024-03-29T05:19:21;2.65;;;1.10;;
21152;SDS011;10734;44.792;20.482;2024-03-29T05:21:50;5.30;;;1.75;;
21152;SDS011;10734;44.792;20.482;2024-03-29T05:24:18;4.35;;;1.60;;
21152;SDS011;10734;44.792;20.482;2024-03-29T05:26:45;4.00;;;1.50;;
21152;SDS011;10734;44.792;20.482;2024-03-29T05:29:12;4.78;;;1.75;;
21152;SDS011;10734;44.792;20.482;2024-03-29T05:31:40;4.65;;;1.23;;
21152;SDS011;10734;44.792;20.482;2024-03-29T05:34:08;2.90;;;1.50;;
21152;SDS011;10734;44.792;20.482;2024-03-29T05:36:36;3.80;;;1.42;;
21152;SDS011;10734;44.792;20.482;2024-03-29T05:39:03;3.85;;;1.65;;
21152;SDS011;10734;44.792;20.482;2024-03-29T05:41:30;5.18;;;1.52;;
21152;SDS011;10734;44.792;20.482;2024-03-29T05:43:58;4.85;;;2.20;;
21152;SDS011;10734;44.792;20.482;2024-03-29T05:46:25;2.65;;;1.20;;
21152;SDS011;10734;44.792;20.482;2024-03-29T05:48:53;3.30;;;1.17;;
21152;SDS011;10734;44.792;20.482;2024-03-29T05:51:20;5.75;;;1.25;;
21152;SDS011;10734;44.792;20.482;2024-03-29T05:53:48;4.80;;;1.50;;
21152;SDS011;10734;44.792;20.482;2024-03-29T05:56:15;6.82;;;1.75;;
21152;SDS011;10734;44.792;20.482;2024-03-29T05:58:43;6.03;;;1.60;;
21152;SDS011;10734;44.792;20.482;2024-03-29T06:01:10;4.30;;;1.20;;
21152;SDS011;10734;44.792;20.482;2024-03-29T06:03:38;5.93;;;1.50;;
21152;SDS011;10734;44.792;20.482;2024-03-29T06:06:05;2.42;;;1.27;;
21152;SDS011;10734;44.792;20.482;2024-03-29T06:08:33;2.70;;;1.00;;
21152;SDS011;10734;44.792;20.482;2024-03-29T06:11:00;2.45;;;1.13;;
21152;SDS011;10734;44.792;20.482;2024-03-29T06:13:27;5.18;;;1.25;;
21152;SDS011;10734;44.792;20.482;2024-03-29T06:16:16;3.40;;;1.27;;
21152;SDS011;10734;44.792;20.482;2024-03-29T06:19:00;6.70;;;1.20;;
21152;SDS011;10734;44.792;20.482;2024-03-29T06:21:28;6.97;;;1.45;;
21152;SDS011;10734;44.792;20.482;2024-03-29T06:23:58;4.60;;;1.52;;
21152;SDS011;10734;44.792;20.482;2024-03-29T06:26:26;5.60;;;1.40;;
21152;SDS011;10734;44.792;20.482;2024-03-29T06:28:53;3.47;;;1.35;;
21152;SDS011;10734;44.792;20.482;2024-03-29T06:31:21;2.88;;;0.90;;
21152;SDS011;10734;44.792;20.482;2024-03-29T06:33:49;2.92;;;1.20;;
21152;SDS011;10734;44.792;20.482;2024-03-29T06:36:16;2.85;;;1.17;;
21152;SDS011;10734;44.792;20.482;2024-03-29T06:38:44;2.83;;;1.30;;
21152;SDS011;10734;44.792;20.482;2024-03-29T06:41:11;5.28;;;1.40;;
21152;SDS011;10734;44.792;20.482;2024-03-29T06:43:41;5.13;;;1.33;;
21152;SDS011;10734;44.792;20.482;2024-03-29T06:46:10;12.77;;;1.50;;
21152;SDS011;10734;44.792;20.482;2024-03-29T06:48:38;7.90;;;1.20;;
21152;SDS011;10734;44.792;20.482;2024-03-29T06:51:05;3.42;;;1.15;;
21152;SDS011;10734;44.792;20.482;2024-03-29T06:53:33;4.53;;;1.13;;
21152;SDS011;10734;44.792;20.482;2024-03-29T06:56:00;5.65;;;1.63;;
21152;SDS011;10734;44.792;20.482;2024-03-29T06:58:27;3.78;;;1.13;;
21152;SDS011;10734;44.792;20.482;2024-03-29T07:00:55;6.45;;;1.10;;
21152;SDS011;10734;44.792;20.482;2024-03-29T07:03:24;3.63;;;1.30;;
21152;SDS011;10734;44.792;20.482;2024-03-29T07:05:51;4.53;;;1.30;;
21152;SDS011;10734;44.792;20.482;2024-03-29T07:08:19;3.95;;;1.25;;
21152;SDS011;10734;44.792;20.482;2024-03-29T07:10:46;7.72;;;0.98;;
21152;SDS011;10734;44.792;20.482;2024-03-29T07:13:13;6.03;;;0.93;;
21152;SDS011;10734;44.792;20.482;2024-03-29T07:15:41;7.43;;;1.55;;
21152;SDS011;10734;44.792;20.482;2024-03-29T07:18:08;4.38;;;1.58;;
21152;SDS011;10734;44.792;20.482;2024-03-29T07:20:36;8.75;;;1.77;;
21152;SDS011;10734;44.792;20.482;2024-03-29T07:23:03;9.77;;;1.58;;
21152;SDS011;10734;44.792;20.482;2024-03-29T07:25:30;6.22;;;1.08;;
21152;SDS011;10734;44.792;20.482;2024-03-29T07:27:58;5.85;;;1.20;;
21152;SDS011;10734;44.792;20.482;2024-03-29T07:30:25;4.43;;;1.45;;
21152;SDS011;10734;44.792;20.482;2024-03-29T07:32:53;6.97;;;1.45;;
21152;SDS011;10734;44.792;20.482;2024-03-29T07:35:20;3.33;;;1.30;;
21152;SDS011;10734;44.792;20.482;2024-03-29T07:37:47;6.20;;;1.42;;
21152;SDS011;10734;44.792;20.482;2024-03-29T07:40:16;5.60;;;1.08;;
21152;SDS011;10734;44.792;20.482;2024-03-29T07:42:44;5.60;;;1.27;;
21152;SDS011;10734;44.792;20.482;2024-03-29T07:45:11;6.60;;;1.42;;
21152;SDS011;10734;44.792;20.482;2024-03-29T07:47:39;5.50;;;1.35;;
21152;SDS011;10734;44.792;20.482;2024-03-29T07:50:06;7.30;;;1.75;;
21152;SDS011;10734;44.792;20.482;2024-03-29T07:52:35;5.68;;;1.30;;
21152;SDS011;10734;44.792;20.482;2024-03-29T07:55:02;5.72;;;1.33;;
21152;SDS011;10734;44.792;20.482;2024-03-29T07:57:30;5.85;;;1.48;;
21152;SDS011;10734;44.792;20.482;2024-03-29T07:59:58;9.27;;;1.80;;
21152;SDS011;10734;44.792;20.482;2024-03-29T08:02:26;3.22;;;1.42;;
21152;SDS011;10734;44.792;20.482;2024-03-29T08:04:53;7.22;;;1.70;;
21152;SDS011;10734;44.792;20.482;2024-03-29T08:07:20;10.30;;;1.75;;
21152;SDS011;10734;44.792;20.482;2024-03-29T08:09:49;6.07;;;1.67;;
21152;SDS011;10734;44.792;20.482;2024-03-29T08:12:17;5.30;;;1.38;;
21152;SDS011;10734;44.792;20.482;2024-03-29T08:14:44;3.88;;;1.30;;
21152;SDS011;10734;44.792;20.482;2024-03-29T08:17:12;8.70;;;2.00;;
21152;SDS011;10734;44.792;20.482;2024-03-29T08:19:40;6.60;;;2.00;;
21152;SDS011;10734;44.792;20.482;2024-03-29T08:22:08;4.78;;;1.90;;
21152;SDS011;10734;44.792;20.482;2024-03-29T08:24:38;5.97;;;1.77;;
21152;SDS011;10734;44.792;20.482;2024-03-29T08:27:06;9.00;;;1.40;;
21152;SDS011;10734;44.792;20.482;2024-03-29T08:29:33;4.28;;;1.88;;
21152;SDS011;10734;44.792;20.482;2024-03-29T08:32:01;5.38;;;1.38;;
21152;SDS011;10734;44.792;20.482;2024-03-29T08:34:29;5.25;;;1.65;;
21152;SDS011;10734;44.792;20.482;2024-03-29T08:37:01;10.65;;;1.73;;
21152;SDS011;10734;44.792;20.482;2024-03-29T08:39:32;16.85;;;1.73;;
21152;SDS011;10734;44.792;20.482;2024-03-29T08:42:00;6.07;;;1.40;;
21152;SDS011;10734;44.792;20.482;2024-03-29T08:44:31;6.03;;;1.43;;
21152;SDS011;10734;44.792;20.482;2024-03-29T08:46:59;5.30;;;2.15;;
21152;SDS011;10734;44.792;20.482;2024-03-29T08:49:28;7.55;;;2.08;;
21152;SDS011;10734;44.792;20.482;2024-03-29T08:51:56;9.85;;;2.15;;
21152;SDS011;10734;44.792;20.482;2024-03-29T08:54:25;10.88;;;1.90;;
21152;SDS011;10734;44.792;20.482;2024-03-29T08:56:53;7.53;;;2.08;;
21152;SDS011;10734;44.792;20.482;2024-03-29T08:59:20;5.03;;;1.88;;
21152;SDS011;10734;44.792;20.482;2024-03-29T09:01:48;7.93;;;2.13;;
21152;SDS011;10734;44.792;20.482;2024-03-29T09:04:15;6.15;;;1.98;;
21152;SDS011;10734;44.792;20.482;2024-03-29T09:06:43;7.63;;;2.28;;
21152;SDS011;10734;44.792;20.482;2024-03-29T09:09:10;6.78;;;1.77;;
21152;SDS011;10734;44.792;20.482;2024-03-29T09:11:38;11.70;;;1.92;;
21152;SDS011;10734;44.792;20.482;2024-03-29T09:14:06;7.90;;;2.20;;
21152;SDS011;10734;44.792;20.482;2024-03-29T09:16:35;9.02;;;1.85;;
21152;SDS011;10734;44.792;20.482;2024-03-29T09:19:02;6.85;;;1.70;;
21152;SDS011;10734;44.792;20.482;2024-03-29T09:21:30;5.60;;;1.60;;
21152;SDS011;10734;44.792;20.482;2024-03-29T09:23:58;9.07;;;1.85;;
21152;SDS011;10734;44.792;20.482;2024-03-29T09:26:25;8.48;;;1.90;;
21152;SDS011;10734;44.792;20.482;2024-03-29T09:28:52;7.55;;;1.70;;
21152;SDS011;10734;44.792;20.482;2024-03-29T09:31:20;4.97;;;1.67;;
21152;SDS011;10734;44.792;20.482;2024-03-29T09:33:47;12.70;;;1.67;;
21152;SDS011;10734;44.792;20.482;2024-03-29T09:36:21;7.07;;;1.92;;
21152;SDS011;10734;44.792;20.482;2024-03-29T09:38:50;8.05;;;1.95;;
21152;SDS011;10734;44.792;20.482;2024-03-29T09:41:18;7.35;;;1.60;;
21152;SDS011;10734;44.792;20.482;2024-03-29T09:43:46;7.07;;;1.80;;
21152;SDS011;10734;44.792;20.482;2024-03-29T09:46:15;12.90;;;1.90;;
21152;SDS011;10734;44.792;20.482;2024-03-29T09:48:44;14.00;;;2.00;;
21152;SDS011;10734;44.792;20.482;2024-03-29T09:51:13;8.82;;;1.75;;
21152;SDS011;10734;44.792;20.482;2024-03-29T09:53:42;6.57;;;1.70;;
21152;SDS011;10734;44.792;20.482;2024-03-29T09:56:10;10.32;;;1.95;;
21152;SDS011;10734;44.792;20.482;2024-03-29T09:58:37;12.88;;;2.63;;
21152;SDS011;10734;44.792;20.482;2024-03-29T10:01:06;10.43;;;2.45;;
21152;SDS011;10734;44.792;20.482;2024-03-29T10:03:39;7.72;;;1.63;;
21152;SDS011;10734;44.792;20.482;2024-03-29T10:06:09;10.75;;;2.00;;
21152;SDS011;10734;44.792;20.482;2024-03-29T10:08:38;7.45;;;1.63;;
21152;SDS011;10734;44.792;20.482;2024-03-29T10:11:06;3.53;;;1.40;;
21152;SDS011;10734;44.792;20.482;2024-03-29T10:13:33;11.35;;;2.40;;
21152;SDS011;10734;44.792;20.482;2024-03-29T10:16:01;7.38;;;2.15;;
21152;SDS011;10734;44.792;20.482;2024-03-29T10:18:29;8.93;;;1.90;;
21152;SDS011;10734;44.792;20.482;2024-03-29T10:23:28;7.68;;;1.98;;
21152;SDS011;10734;44.792;20.482;2024-03-29T10:25:57;8.90;;;2.17;;
21152;SDS011;10734;44.792;20.482;2024-03-29T10:30:57;12.52;;;2.33;;
21152;SDS011;10734;44.792;20.482;2024-03-29T10:33:27;12.80;;;2.38;;
21152;SDS011;10734;44.792;20.482;2024-03-29T10:35:56;11.20;;;2.30;;
21152;SDS011;10734;44.792;20.482;2024-03-29T10:38:25;8.32;;;1.92;;
21152;SDS011;10734;44.792;20.482;2024-03-29T10:40:53;7.78;;;2.00;;
21152;SDS011;10734;44.792;20.482;2024-03-29T10:43:21;12.50;;;1.90;;
21152;SDS011;10734;44.792;20.482;2024-03-29T10:45:50;5.18;;;1.75;;
21152;SDS011;10734;44.792;20.482;2024-03-29T10:48:20;8.82;;;1.70;;
21152;SDS011;10734;44.792;20.482;2024-03-29T10:50:49;15.07;;;2.53;;
21152;SDS011;10734;44.792;20.482;2024-03-29T10:53:18;6.18;;;2.25;;
21152;SDS011;10734;44.792;20.482;2024-03-29T10:55:45;8.70;;;2.15;;
21152;SDS011;10734;44.792;20.482;2024-03-29T10:58:14;7.75;;;2.25;;
21152;SDS011;10734;44.792;20.482;2024-03-29T11:03:23;9.90;;;1.85;;
21152;SDS011;10734;44.792;20.482;2024-03-29T11:06:07;8.70;;;2.03;;
21152;SDS011;10734;44.792;20.482;2024-03-29T11:08:39;6.50;;;2.03;;
21152;SDS011;10734;44.792;20.482;2024-03-29T11:16:09;6.07;;;1.73;;
21152;SDS011;10734;44.792;20.482;2024-03-29T11:18:38;7.05;;;1.90;;
21152;SDS011;10734;44.792;20.482;2024-03-29T11:21:06;6.03;;;1.65;;
21152;SDS011;10734;44.792;20.482;2024-03-29T11:23:36;8.32;;;1.80;;
21152;SDS011;10734;44.792;20.482;2024-03-29T11:26:04;8.25;;;2.10;;
21152;SDS011;10734;44.792;20.482;2024-03-29T11:28:33;7.22;;;2.00;;
21152;SDS011;10734;44.792;20.482;2024-03-29T11:31:02;6.88;;;2.03;;
21152;SDS011;10734;44.792;20.482;2024-03-29T11:38:39;9.88;;;2.08;;
21152;SDS011;10734;44.792;20.482;2024-03-29T11:43:42;8.93;;;1.92;;
21152;SDS011;10734;44.792;20.482;2024-03-29T11:46:10;7.95;;;2.08;;
21152;SDS011;10734;44.792;20.482;2024-03-29T11:48:39;10.52;;;1.92;;
21152;SDS011;10734;44.792;20.482;2024-03-29T11:51:07;10.95;;;1.98;;
21152;SDS011;10734;44.792;20.482;2024-03-29T11:53:36;13.48;;;2.58;;
21152;SDS011;10734;44.792;20.482;2024-03-29T11:56:04;11.00;;;2.30;;
21152;SDS011;10734;44.792;20.482;2024-03-29T11:58:33;13.00;;;2.63;;
21152;SDS011;10734;44.792;20.482;2024-03-29T12:01:01;8.18;;;2.03;;
21152;SDS011;10734;44.792;20.482;2024-03-29T12:03:29;7.15;;;1.83;;
21152;SDS011;10734;44.792;20.482;2024-03-29T12:05:58;9.05;;;2.47;;
21152;SDS011;10734;44.792;20.482;2024-03-29T12:08:28;9.30;;;1.90;;
21152;SDS011;10734;44.792;20.482;2024-03-29T12:10:57;10.77;;;1.73;;
21152;SDS011;10734;44.792;20.482;2024-03-29T12:13:25;10.38;;;2.05;;
21152;SDS011;10734;44.792;20.482;2024-03-29T12:15:53;6.03;;;1.65;;
21152;SDS011;10734;44.792;20.482;2024-03-29T12:18:21;11.55;;;1.80;;
21152;SDS011;10734;44.792;20.482;2024-03-29T12:20:51;6.32;;;2.00;;
21152;SDS011;10734;44.792;20.482;2024-03-29T12:23:20;7.28;;;1.67;;
21152;SDS011;10734;44.792;20.482;2024-03-29T12:25:49;5.55;;;1.60;;
21152;SDS011;10734;44.792;20.482;2024-03-29T12:28:17;7.03;;;2.17;;
21152;SDS011;10734;44.792;20.482;2024-03-29T12:30:45;8.02;;;1.80;;
21152;SDS011;10734;44.792;20.482;2024-03-29T12:33:15;9.10;;;2.22;;
21152;SDS011;10734;44.792;20.482;2024-03-29T12:35:47;12.68;;;2.15;;
21152;SDS011;10734;44.792;20.482;2024-03-29T12:38:17;5.77;;;1.97;;
21152;SDS011;10734;44.792;20.482;2024-03-29T12:40:45;9.80;;;1.60;;
21152;SDS011;10734;44.792;20.482;2024-03-29T12:43:15;9.65;;;2.30;;
21152;SDS011;10734;44.792;20.482;2024-03-29T12:45:46;5.80;;;1.70;;
21152;SDS011;10734;44.792;20.482;2024-03-29T12:50:46;4.90;;;2.00;;
21152;SDS011;10734;44.792;20.482;2024-03-29T12:53:15;12.52;;;2.25;;
21152;SDS011;10734;44.792;20.482;2024-03-29T12:55:44;9.00;;;2.17;;
21152;SDS011;10734;44.792;20.482;2024-03-29T12:58:13;6.95;;;1.70;;
21152;SDS011;10734;44.792;20.482;2024-03-29T13:00:42;7.50;;;1.63;;
21152;SDS011;10734;44.792;20.482;2024-03-29T13:03:09;8.13;;;1.92;;
21152;SDS011;10734;44.792;20.482;2024-03-29T13:05:38;10.10;;;1.65;;
21152;SDS011;10734;44.792;20.482;2024-03-29T13:08:11;9.70;;;2.13;;
21152;SDS011;10734;44.792;20.482;2024-03-29T13:10:41;6.90;;;1.63;;
21152;SDS011;10734;44.792;20.482;2024-03-29T13:13:09;8.25;;;1.52;;
21152;SDS011;10734;44.792;20.482;2024-03-29T13:15:38;7.93;;;2.25;;
21152;SDS011;10734;44.792;20.482;2024-03-29T13:18:07;11.63;;;2.13;;
21152;SDS011;10734;44.792;20.482;2024-03-29T13:20:37;7.63;;;2.17;;
21152;SDS011;10734;44.792;20.482;2024-03-29T13:23:07;9.52;;;2.15;;
21152;SDS011;10734;44.792;20.482;2024-03-29T13:25:35;8.00;;;1.70;;
21152;SDS011;10734;44.792;20.482;2024-03-29T13:28:02;11.63;;;1.98;;
21152;SDS011;10734;44.792;20.482;2024-03-29T13:30:29;7.38;;;1.80;;
21152;SDS011;10734;44.792;20.482;2024-03-29T13:32:57;8.55;;;1.83;;
21152;SDS011;10734;44.792;20.482;2024-03-29T13:35:24;7.05;;;1.70;;
21152;SDS011;10734;44.792;20.482;2024-03-29T13:37:52;10.23;;;2.63;;
21152;SDS011;10734;44.792;20.482;2024-03-29T13:40:21;7.95;;;2.40;;
21152;SDS011;10734;44.792;20.482;2024-03-29T13:42:50;12.13;;;1.98;;
21152;SDS011;10734;44.792;20.482;2024-03-29T13:45:17;11.98;;;1.98;;
21152;SDS011;10734;44.792;20.482;2024-03-29T13:47:46;10.32;;;2.08;;
21152;SDS011;10734;44.792;20.482;2024-03-29T13:50:14;10.65;;;2.70;;
21152;SDS011;10734;44.792;20.482;2024-03-29T13:52:42;6.40;;;2.25;;
21152;SDS011;10734;44.792;20.482;2024-03-29T13:55:09;11.00;;;1.85;;
21152;SDS011;10734;44.792;20.482;2024-03-29T13:57:36;6.30;;;2.03;;
21152;SDS011;10734;44.792;20.482;2024-03-29T14:00:05;12.18;;;2.25;;
21152;SDS011;10734;44.792;20.482;2024-03-29T14:02:33;7.10;;;2.10;;
21152;SDS011;10734;44.792;20.482;2024-03-29T14:05:01;5.50;;;1.80;;
21152;SDS011;10734;44.792;20.482;2024-03-29T14:07:30;5.90;;;1.90;;
21152;SDS011;10734;44.792;20.482;2024-03-29T14:09:58;7.88;;;1.80;;
21152;SDS011;10734;44.792;20.482;2024-03-29T14:12:29;7.30;;;2.00;;
21152;SDS011;10734;44.792;20.482;2024-03-29T14:14:57;5.75;;;1.83;;
21152;SDS011;10734;44.792;20.482;2024-03-29T14:17:25;9.70;;;1.98;;
21152;SDS011;10734;44.792;20.482;2024-03-29T14:19:53;5.07;;;1.77;;
21152;SDS011;10734;44.792;20.482;2024-03-29T14:22:21;9.32;;;1.70;;
21152;SDS011;10734;44.792;20.482;2024-03-29T14:24:49;7.30;;;1.88;;
21152;SDS011;10734;44.792;20.482;2024-03-29T14:27:16;8.38;;;2.15;;
21152;SDS011;10734;44.792;20.482;2024-03-29T14:29:43;7.38;;;1.92;;
21152;SDS011;10734;44.792;20.482;2024-03-29T14:32:12;9.30;;;2.08;;
21152;SDS011;10734;44.792;20.482;2024-03-29T14:34:39;6.75;;;1.90;;
21152;SDS011;10734;44.792;20.482;2024-03-29T14:37:12;9.48;;;2.00;;
21152;SDS011;10734;44.792;20.482;2024-03-29T14:39:41;8.05;;;2.00;;
21152;SDS011;10734;44.792;20.482;2024-03-29T14:42:10;12.50;;;1.98;;
21152;SDS011;10734;44.792;20.482;2024-03-29T14:44:40;12.32;;;2.30;;
21152;SDS011;10734;44.792;20.482;2024-03-29T14:47:07;10.98;;;2.15;;
21152;SDS011;10734;44.792;20.482;2024-03-29T14:49:35;7.88;;;2.22;;
21152;SDS011;10734;44.792;20.482;2024-03-29T14:52:02;8.82;;;2.33;;
21152;SDS011;10734;44.792;20.482;2024-03-29T14:54:30;5.38;;;1.80;;
21152;SDS011;10734;44.792;20.482;2024-03-29T14:56:57;11.25;;;2.25;;
21152;SDS011;10734;44.792;20.482;2024-03-29T14:59:25;10.63;;;2.65;;
21152;SDS011;10734;44.792;20.482;2024-03-29T15:01:56;7.53;;;2.60;;
21152;SDS011;10734;44.792;20.482;2024-03-29T15:04:24;10.70;;;2.70;;